sensor_id;sensor_type;location;lat;lon;timestamp;pressure;altitude;pressure_sealevel;temperature;humidity
62926;BME280;55732;52.248;-0.844;2022-11-10T00:01:55;100507.55;;;9.63;87.58
62926;BME280;55732;52.248;-0.844;2022-11-10T00:04:21;100505.09;;;9.61;87.55
62926;BME280;55732;52.248;-0.844;2022-11-10T00:06:47;100512.46;;;9.60;87.74
62926;BME280;55732;52.248;-0.844;2022-11-10T00:09:13;100518.25;;;9.58;87.63
62926;BME280;55732;52.248;-0.844;2022-11-10T00:11:38;100526.86;;;9.57;87.64
62926;BME280;55732;52.248;-0.844;2022-11-10T00:14:04;100532.33;;;9.56;87.66
62926;BME280;55732;52.248;-0.844;2022-11-10T00:16:48;100543.21;;;9.55;87.64
62926;BME280;55732;52.248;-0.844;2022-11-10T00:19:27;100543.05;;;9.53;87.74
62926;BME280;55732;52.248;-0.844;2022-11-10T00:21:52;100549.89;;;9.52;87.86
62926;BME280;55732;52.248;-0.844;2022-11-10T00:24:18;100559.91;;;9.50;87.80
62926;BME280;55732;52.248;-0.844;2022-11-10T00:26:43;100556.92;;;9.50;87.93
62926;BME280;55732;52.248;-0.844;2022-11-10T00:29:09;100549.88;;;9.49;88.05
62926;BME280;55732;52.248;-0.844;2022-11-10T00:31:38;100550.94;;;9.50;88.11
62926;BME280;55732;52.248;-0.844;2022-11-10T00:34:05;100545.67;;;9.50;88.02
62926;BME280;55732;52.248;-0.844;2022-11-10T00:36:30;100547.78;;;9.51;87.98
62926;BME280;55732;52.248;-0.844;2022-11-10T00:38:56;100543.91;;;9.51;87.96
62926;BME280;55732;52.248;-0.844;2022-11-10T00:41:21;100543.91;;;9.51;88.08
62926;BME280;55732;52.248;-0.844;2022-11-10T00:43:47;100553.92;;;9.49;88.02
62926;BME280;55732;52.248;-0.844;2022-11-10T00:46:14;100554.62;;;9.49;88.18
62926;BME280;55732;52.248;-0.844;2022-11-10T00:48:39;100558.30;;;9.47;88.20
62926;BME280;55732;52.248;-0.844;2022-11-10T00:51:05;100558.66;;;9.47;88.27
62926;BME280;55732;52.248;-0.844;2022-11-10T00:53:31;100559.89;;;9.47;88.29
62926;BME280;55732;52.248;-0.844;2022-11-10T00:55:56;100567.97;;;9.47;88.44
62926;BME280;55732;52.248;-0.844;2022-11-10T00:58:22;100570.61;;;9.47;88.17
62926;BME280;55732;52.248;-0.844;2022-11-10T01:00:48;100575.54;;;9.48;88.36
62926;BME280;55732;52.248;-0.844;2022-11-10T01:03:14;100579.41;;;9.48;88.32
62926;BME280;55732;52.248;-0.844;2022-11-10T01:05:40;100584.14;;;9.48;88.32
62926;BME280;55732;52.248;-0.844;2022-11-10T01:08:06;100579.39;;;9.47;88.56
62926;BME280;55732;52.248;-0.844;2022-11-10T01:10:31;100575.70;;;9.46;88.43
62926;BME280;55732;52.248;-0.844;2022-11-10T01:12:57;100574.29;;;9.46;88.54
62926;BME280;55732;52.248;-0.844;2022-11-10T01:15:23;100577.45;;;9.46;88.45
62926;BME280;55732;52.248;-0.844;2022-11-10T01:17:49;100582.73;;;9.47;88.49
62926;BME280;55732;52.248;-0.844;2022-11-10T01:20:15;100587.48;;;9.47;88.42
62926;BME280;55732;52.248;-0.844;2022-11-10T01:22:40;100588.19;;;9.47;88.37
62926;BME280;55732;52.248;-0.844;2022-11-10T01:25:06;100594.15;;;9.47;88.55
62926;BME280;55732;52.248;-0.844;2022-11-10T01:27:32;100595.39;;;9.47;88.53
62926;BME280;55732;52.248;-0.844;2022-11-10T01:29:57;100587.48;;;9.48;88.54
62926;BME280;55732;52.248;-0.844;2022-11-10T01:32:23;100588.71;;;9.48;88.40
62926;BME280;55732;52.248;-0.844;2022-11-10T01:34:48;100582.90;;;9.47;88.41
62926;BME280;55732;52.248;-0.844;2022-11-10T01:37:13;100580.61;;;9.46;88.56
62926;BME280;55732;52.248;-0.844;2022-11-10T01:39:39;100586.08;;;9.47;88.51
62926;BME280;55732;52.248;-0.844;2022-11-10T01:42:04;100586.06;;;9.46;88.41
62926;BME280;55732;52.248;-0.844;2022-11-10T01:44:30;100580.08;;;9.42;88.47
62926;BME280;55732;52.248;-0.844;2022-11-10T01:46:55;100592.57;;;9.46;88.48
62926;BME280;55732;52.248;-0.844;2022-11-10T01:49:23;100593.27;;;9.47;88.53
62926;BME280;55732;52.248;-0.844;2022-11-10T01:51:57;100587.14;;;9.47;88.65
62926;BME280;55732;52.248;-0.844;2022-11-10T01:54:32;100592.94;;;9.48;88.57
62926;BME280;55732;52.248;-0.844;2022-11-10T01:57:02;100598.56;;;9.49;88.49
62926;BME280;55732;52.248;-0.844;2022-11-10T01:59:32;100606.83;;;9.49;88.43
62926;BME280;55732;52.248;-0.844;2022-11-10T02:02:16;100615.25;;;9.48;88.45
62926;BME280;55732;52.248;-0.844;2022-11-10T02:04:44;100619.83;;;9.49;88.52
62926;BME280;55732;52.248;-0.844;2022-11-10T02:07:09;100623.16;;;9.49;88.61
62926;BME280;55732;52.248;-0.844;2022-11-10T02:09:36;100623.69;;;9.49;88.59
62926;BME280;55732;52.248;-0.844;2022-11-10T02:12:01;100626.16;;;9.49;88.62
62926;BME280;55732;52.248;-0.844;2022-11-10T02:14:27;100627.39;;;9.49;88.57
62926;BME280;55732;52.248;-0.844;2022-11-10T02:16:53;100629.85;;;9.49;88.59
62926;BME280;55732;52.248;-0.844;2022-11-10T02:19:22;100630.90;;;9.49;88.72
62926;BME280;55732;52.248;-0.844;2022-11-10T02:21:48;100627.91;;;9.49;88.62
62926;BME280;55732;52.248;-0.844;2022-11-10T02:24:14;100627.38;;;9.49;88.55
62926;BME280;55732;52.248;-0.844;2022-11-10T02:26:50;100630.90;;;9.48;88.58
62926;BME280;55732;52.248;-0.844;2022-11-10T02:29:16;100626.14;;;9.47;88.77
62926;BME280;55732;52.248;-0.844;2022-11-10T02:31:42;100630.17;;;9.46;88.73
62926;BME280;55732;52.248;-0.844;2022-11-10T02:34:07;100635.97;;;9.45;88.75
62926;BME280;55732;52.248;-0.844;2022-11-10T02:36:33;100640.72;;;9.45;88.90
62926;BME280;55732;52.248;-0.844;2022-11-10T02:38:59;100644.77;;;9.46;88.91
62926;BME280;55732;52.248;-0.844;2022-11-10T02:41:24;100641.61;;;9.47;88.98
62926;BME280;55732;52.248;-0.844;2022-11-10T02:43:51;100637.23;;;9.50;89.03
62926;BME280;55732;52.248;-0.844;2022-11-10T02:46:17;100636.02;;;9.52;88.98
62926;BME280;55732;52.248;-0.844;2022-11-10T02:48:43;100642.00;;;9.53;89.06
62926;BME280;55732;52.248;-0.844;2022-11-10T02:51:08;100643.41;;;9.54;89.13
62926;BME280;55732;52.248;-0.844;2022-11-10T02:53:33;100646.23;;;9.56;89.05
62926;BME280;55732;52.248;-0.844;2022-11-10T02:55:59;100644.11;;;9.57;89.09
62926;BME280;55732;52.248;-0.844;2022-11-10T02:58:24;100641.14;;;9.60;89.11
62926;BME280;55732;52.248;-0.844;2022-11-10T03:00:50;100637.98;;;9.63;89.19
62926;BME280;55732;52.248;-0.844;2022-11-10T03:03:15;100637.13;;;9.67;89.04
62926;BME280;55732;52.248;-0.844;2022-11-10T03:05:40;100638.53;;;9.70;88.97
62926;BME280;55732;52.248;-0.844;2022-11-10T03:08:06;100639.25;;;9.74;89.10
62926;BME280;55732;52.248;-0.844;2022-11-10T03:10:31;100635.58;;;9.77;89.07
62926;BME280;55732;52.248;-0.844;2022-11-10T03:12:59;100635.92;;;9.82;88.99
62926;BME280;55732;52.248;-0.844;2022-11-10T03:15:26;100640.35;;;9.86;88.98
62926;BME280;55732;52.248;-0.844;2022-11-10T03:17:52;100644.57;;;9.90;89.05
62926;BME280;55732;52.248;-0.844;2022-11-10T03:20:18;100654.08;;;9.94;88.90
62926;BME280;55732;52.248;-0.844;2022-11-10T03:22:44;100656.91;;;10.00;88.82
62926;BME280;55732;52.248;-0.844;2022-11-10T03:25:10;100658.15;;;10.05;88.68
62926;BME280;55732;52.248;-0.844;2022-11-10T03:27:36;100661.69;;;10.11;88.67
62926;BME280;55732;52.248;-0.844;2022-11-10T03:30:03;100660.45;;;10.16;88.67
62926;BME280;55732;52.248;-0.844;2022-11-10T03:32:29;100653.64;;;10.21;88.67
62926;BME280;55732;52.248;-0.844;2022-11-10T03:34:54;100656.64;;;10.26;88.47
62926;BME280;55732;52.248;-0.844;2022-11-10T03:37:19;100653.46;;;10.32;88.42
62926;BME280;55732;52.248;-0.844;2022-11-10T03:39:45;100661.05;;;10.35;88.30
62926;BME280;55732;52.248;-0.844;2022-11-10T03:42:10;100666.33;;;10.39;88.19
62926;BME280;55732;52.248;-0.844;2022-11-10T03:44:35;100671.95;;;10.42;88.26
62926;BME280;55732;52.248;-0.844;2022-11-10T03:47:01;100675.48;;;10.46;88.24
62926;BME280;55732;52.248;-0.844;2022-11-10T03:49:29;100677.24;;;10.49;88.17
62926;BME280;55732;52.248;-0.844;2022-11-10T03:51:54;100681.29;;;10.52;88.09
62926;BME280;55732;52.248;-0.844;2022-11-10T03:54:20;100682.00;;;10.55;87.96
62926;BME280;55732;52.248;-0.844;2022-11-10T03:56:45;100682.36;;;10.58;87.96
62926;BME280;55732;52.248;-0.844;2022-11-10T03:59:11;100673.39;;;10.62;87.81
62926;BME280;55732;52.248;-0.844;2022-11-10T04:01:36;100675.84;;;10.65;87.94
62926;BME280;55732;52.248;-0.844;2022-11-10T04:04:01;100673.55;;;10.68;87.85
62926;BME280;55732;52.248;-0.844;2022-11-10T04:06:27;100673.91;;;10.70;87.91
62926;BME280;55732;52.248;-0.844;2022-11-10T04:09:11;100676.91;;;10.73;87.93
62926;BME280;55732;52.248;-0.844;2022-11-10T04:11:36;100683.59;;;10.75;87.90
62926;BME280;55732;52.248;-0.844;2022-11-10T04:14:20;100680.06;;;10.77;87.80
62926;BME280;55732;52.248;-0.844;2022-11-10T04:17:04;100677.42;;;10.79;87.83
62926;BME280;55732;52.248;-0.844;2022-11-10T04:19:31;100671.61;;;10.82;87.78
62926;BME280;55732;52.248;-0.844;2022-11-10T04:21:57;100670.39;;;10.84;87.62
62926;BME280;55732;52.248;-0.844;2022-11-10T04:24:22;100666.84;;;10.86;87.58
62926;BME280;55732;52.248;-0.844;2022-11-10T04:26:48;100667.89;;;10.88;87.56
62926;BME280;55732;52.248;-0.844;2022-11-10T04:29:18;100672.30;;;10.89;87.43
62926;BME280;55732;52.248;-0.844;2022-11-10T04:31:45;100671.60;;;10.90;87.44
62926;BME280;55732;52.248;-0.844;2022-11-10T04:34:13;100673.71;;;10.91;87.34
62926;BME280;55732;52.248;-0.844;2022-11-10T04:36:41;100673.71;;;10.91;87.42
62926;BME280;55732;52.248;-0.844;2022-11-10T04:39:07;100676.00;;;10.90;87.30
62926;BME280;55732;52.248;-0.844;2022-11-10T04:41:33;100677.58;;;10.89;87.11
62926;BME280;55732;52.248;-0.844;2022-11-10T04:44:00;100682.52;;;10.87;87.05
62926;BME280;55732;52.248;-0.844;2022-11-10T04:46:28;100682.33;;;10.86;87.14
62926;BME280;55732;52.248;-0.844;2022-11-10T04:48:55;100679.87;;;10.86;87.12
62926;BME280;55732;52.248;-0.844;2022-11-10T04:51:24;100682.34;;;10.88;87.23
62926;BME280;55732;52.248;-0.844;2022-11-10T04:53:50;100685.86;;;10.90;87.08
62926;BME280;55732;52.248;-0.844;2022-11-10T04:56:17;100693.96;;;10.92;87.10
62926;BME280;55732;52.248;-0.844;2022-11-10T04:58:43;100701.02;;;10.94;87.12
62926;BME280;55732;52.248;-0.844;2022-11-10T05:01:13;100702.42;;;10.95;87.05
62926;BME280;55732;52.248;-0.844;2022-11-10T05:03:39;100711.59;;;10.97;86.91
62926;BME280;55732;52.248;-0.844;2022-11-10T05:06:05;100717.04;;;10.98;86.81
62926;BME280;55732;52.248;-0.844;2022-11-10T05:08:30;100716.69;;;11.00;86.79
62926;BME280;55732;52.248;-0.844;2022-11-10T05:10:56;100712.28;;;11.01;86.75
62926;BME280;55732;52.248;-0.844;2022-11-10T05:13:22;100708.05;;;11.03;86.72
62926;BME280;55732;52.248;-0.844;2022-11-10T05:15:47;100715.45;;;11.04;86.65
62926;BME280;55732;52.248;-0.844;2022-11-10T05:18:13;100714.58;;;11.05;86.65
62926;BME280;55732;52.248;-0.844;2022-11-10T05:20:38;100708.94;;;11.06;86.64
62926;BME280;55732;52.248;-0.844;2022-11-10T05:23:04;100711.06;;;11.08;86.73
62926;BME280;55732;52.248;-0.844;2022-11-10T05:25:48;100707.35;;;11.09;86.66
62926;BME280;55732;52.248;-0.844;2022-11-10T05:28:13;100705.03;;;11.10;86.78
62926;BME280;55732;52.248;-0.844;2022-11-10T05:30:41;100698.88;;;11.11;86.73
62926;BME280;55732;52.248;-0.844;2022-11-10T05:33:06;100696.93;;;11.12;86.69
62926;BME280;55732;52.248;-0.844;2022-11-10T05:35:32;100694.81;;;11.14;86.69
62926;BME280;55732;52.248;-0.844;2022-11-10T05:37:58;100685.48;;;11.15;86.70
62926;BME280;55732;52.248;-0.844;2022-11-10T05:40:24;100686.19;;;11.16;86.68
62926;BME280;55732;52.248;-0.844;2022-11-10T05:42:51;100683.90;;;11.17;86.66
62926;BME280;55732;52.248;-0.844;2022-11-10T05:45:19;100681.08;;;11.19;86.65
62926;BME280;55732;52.248;-0.844;2022-11-10T05:47:45;100672.09;;;11.19;86.59
62926;BME280;55732;52.248;-0.844;2022-11-10T05:50:11;100672.96;;;11.18;86.58
62926;BME280;55732;52.248;-0.844;2022-11-10T05:52:45;100672.27;;;11.17;86.53
62926;BME280;55732;52.248;-0.844;2022-11-10T05:55:12;100680.02;;;11.15;86.73
62926;BME280;55732;52.248;-0.844;2022-11-10T05:57:37;100679.14;;;11.14;86.70
62926;BME280;55732;52.248;-0.844;2022-11-10T06:00:04;100684.78;;;11.14;86.60
62926;BME280;55732;52.248;-0.844;2022-11-10T06:02:30;100684.23;;;11.14;86.83
62926;BME280;55732;52.248;-0.844;2022-11-10T06:04:56;100688.12;;;11.15;86.86
62926;BME280;55732;52.248;-0.844;2022-11-10T06:07:22;100693.41;;;11.16;86.76
62926;BME280;55732;52.248;-0.844;2022-11-10T06:09:47;100695.35;;;11.17;86.81
62926;BME280;55732;52.248;-0.844;2022-11-10T06:12:13;100696.58;;;11.19;86.81
62926;BME280;55732;52.248;-0.844;2022-11-10T06:14:39;100703.27;;;11.21;86.88
62926;BME280;55732;52.248;-0.844;2022-11-10T06:17:04;100710.48;;;11.23;86.86
62926;BME280;55732;52.248;-0.844;2022-11-10T06:19:29;100716.30;;;11.26;86.84
62926;BME280;55732;52.248;-0.844;2022-11-10T06:21:56;100720.88;;;11.27;86.84
62926;BME280;55732;52.248;-0.844;2022-11-10T06:24:21;100728.64;;;11.29;86.80
62926;BME280;55732;52.248;-0.844;2022-11-10T06:26:46;100725.46;;;11.32;86.77
62926;BME280;55732;52.248;-0.844;2022-11-10T06:29:12;100729.48;;;11.34;86.89
62926;BME280;55732;52.248;-0.844;2022-11-10T06:31:37;100729.33;;;11.36;86.87
62926;BME280;55732;52.248;-0.844;2022-11-10T06:34:03;100738.13;;;11.37;86.83
62926;BME280;55732;52.248;-0.844;2022-11-10T06:36:28;100736.20;;;11.38;86.93
62926;BME280;55732;52.248;-0.844;2022-11-10T06:38:53;100736.90;;;11.40;86.82
62926;BME280;55732;52.248;-0.844;2022-11-10T06:41:19;100736.73;;;11.41;86.74
62926;BME280;55732;52.248;-0.844;2022-11-10T06:43:44;100736.73;;;11.42;86.71
62926;BME280;55732;52.248;-0.844;2022-11-10T06:46:10;100734.96;;;11.43;86.72
62926;BME280;55732;52.248;-0.844;2022-11-10T06:48:35;100732.84;;;11.44;86.65
62926;BME280;55732;52.248;-0.844;2022-11-10T06:51:01;100733.35;;;11.45;86.72
62926;BME280;55732;52.248;-0.844;2022-11-10T06:53:26;100735.99;;;11.47;86.75
62926;BME280;55732;52.248;-0.844;2022-11-10T06:55:51;100739.52;;;11.48;86.74
62926;BME280;55732;52.248;-0.844;2022-11-10T06:58:17;100742.87;;;11.49;86.72
62926;BME280;55732;52.248;-0.844;2022-11-10T07:00:43;100739.88;;;11.50;86.63
62926;BME280;55732;52.248;-0.844;2022-11-10T07:03:12;100736.70;;;11.50;86.75
62926;BME280;55732;52.248;-0.844;2022-11-10T07:05:38;100736.16;;;11.50;86.77
62926;BME280;55732;52.248;-0.844;2022-11-10T07:08:14;100743.05;;;11.50;86.70
62926;BME280;55732;52.248;-0.844;2022-11-10T07:10:43;100741.98;;;11.51;86.72
62926;BME280;55732;52.248;-0.844;2022-11-10T07:13:10;100739.16;;;11.51;86.70
62926;BME280;55732;52.248;-0.844;2022-11-10T07:15:36;100740.92;;;11.52;86.81
62926;BME280;55732;52.248;-0.844;2022-11-10T07:18:03;100739.17;;;11.53;86.88
62926;BME280;55732;52.248;-0.844;2022-11-10T07:20:30;100744.45;;;11.54;86.84
62926;BME280;55732;52.248;-0.844;2022-11-10T07:23:03;100744.27;;;11.55;86.97
62926;BME280;55732;52.248;-0.844;2022-11-10T07:25:31;100751.13;;;11.57;86.97
62926;BME280;55732;52.248;-0.844;2022-11-10T07:27:59;100761.70;;;11.60;87.02
62926;BME280;55732;52.248;-0.844;2022-11-10T07:30:26;100774.05;;;11.62;87.02
62926;BME280;55732;52.248;-0.844;2022-11-10T07:33:03;100782.86;;;11.64;87.01
62926;BME280;55732;52.248;-0.844;2022-11-10T07:35:29;100786.22;;;11.67;86.97
62926;BME280;55732;52.248;-0.844;2022-11-10T07:37:56;100787.61;;;11.69;87.05
62926;BME280;55732;52.248;-0.844;2022-11-10T07:40:22;100786.02;;;11.71;87.04
62926;BME280;55732;52.248;-0.844;2022-11-10T07:42:47;100783.55;;;11.72;86.92
62926;BME280;55732;52.248;-0.844;2022-11-10T07:45:12;100791.48;;;11.75;87.00
62926;BME280;55732;52.248;-0.844;2022-11-10T07:47:38;100790.10;;;11.78;87.04
62926;BME280;55732;52.248;-0.844;2022-11-10T07:50:04;100789.57;;;11.79;86.93
62926;BME280;55732;52.248;-0.844;2022-11-10T07:52:29;100797.48;;;11.80;86.91
62926;BME280;55732;52.248;-0.844;2022-11-10T07:54:55;100803.48;;;11.83;86.95
62926;BME280;55732;52.248;-0.844;2022-11-10T07:57:20;100809.48;;;11.86;86.81
62926;BME280;55732;52.248;-0.844;2022-11-10T07:59:46;100808.77;;;11.89;86.78
62926;BME280;55732;52.248;-0.844;2022-11-10T08:02:11;100803.98;;;11.92;86.62
62926;BME280;55732;52.248;-0.844;2022-11-10T08:04:36;100810.68;;;11.94;86.55
62926;BME280;55732;52.248;-0.844;2022-11-10T08:07:02;100809.45;;;11.97;86.49
62926;BME280;55732;52.248;-0.844;2022-11-10T08:09:28;100816.83;;;12.04;86.41
62926;BME280;55732;52.248;-0.844;2022-11-10T08:11:53;100825.11;;;12.11;86.26
62926;BME280;55732;52.248;-0.844;2022-11-10T08:14:19;100830.38;;;12.17;86.02
62926;BME280;55732;52.248;-0.844;2022-11-10T08:16:44;100832.09;;;12.29;85.96
62926;BME280;55732;52.248;-0.844;2022-11-10T08:19:10;100835.39;;;12.43;85.67
62926;BME280;55732;52.248;-0.844;2022-11-10T08:21:36;100832.32;;;12.55;85.51
62926;BME280;55732;52.248;-0.844;2022-11-10T08:24:01;100842.51;;;12.67;85.20
62926;BME280;55732;52.248;-0.844;2022-11-10T08:26:27;100848.05;;;12.84;84.81
62926;BME280;55732;52.248;-0.844;2022-11-10T08:28:52;100850.21;;;13.04;84.32
62926;BME280;55732;52.248;-0.844;2022-11-10T08:31:18;100847.41;;;13.27;84.01
62926;BME280;55732;52.248;-0.844;2022-11-10T08:33:44;100846.34;;;13.50;83.42
62926;BME280;55732;52.248;-0.844;2022-11-10T08:36:09;100845.52;;;13.60;82.95
62926;BME280;55732;52.248;-0.844;2022-11-10T08:38:35;100854.11;;;13.71;82.59
62926;BME280;55732;52.248;-0.844;2022-11-10T08:41:00;100859.92;;;13.91;82.28
62926;BME280;55732;52.248;-0.844;2022-11-10T08:43:25;100844.20;;;14.04;81.70
62926;BME280;55732;52.248;-0.844;2022-11-10T08:45:54;100856.23;;;14.21;81.38
62926;BME280;55732;52.248;-0.844;2022-11-10T08:48:23;100856.46;;;14.30;81.11
62926;BME280;55732;52.248;-0.844;2022-11-10T08:50:49;100856.95;;;14.34;80.84
62926;BME280;55732;52.248;-0.844;2022-11-10T08:53:23;100858.35;;;14.38;80.62
62926;BME280;55732;52.248;-0.844;2022-11-10T08:55:50;100857.98;;;14.40;80.18
62926;BME280;55732;52.248;-0.844;2022-11-10T08:58:19;100860.10;;;14.40;80.08
62926;BME280;55732;52.248;-0.844;2022-11-10T09:00:46;100862.59;;;14.39;79.95
62926;BME280;55732;52.248;-0.844;2022-11-10T09:03:22;100863.30;;;14.37;79.76
62926;BME280;55732;52.248;-0.844;2022-11-10T09:05:49;100865.08;;;14.36;79.65
62926;BME280;55732;52.248;-0.844;2022-11-10T09:08:15;100868.64;;;14.35;79.51
62926;BME280;55732;52.248;-0.844;2022-11-10T09:10:46;100872.20;;;14.32;79.46
62926;BME280;55732;52.248;-0.844;2022-11-10T09:13:14;100874.67;;;14.32;79.40
62926;BME280;55732;52.248;-0.844;2022-11-10T09:15:40;100877.48;;;14.37;79.28
62926;BME280;55732;52.248;-0.844;2022-11-10T09:18:06;100879.23;;;14.37;79.19
62926;BME280;55732;52.248;-0.844;2022-11-10T09:20:35;100879.95;;;14.36;79.00
62926;BME280;55732;52.248;-0.844;2022-11-10T09:23:14;100887.39;;;14.38;78.97
62926;BME280;55732;52.248;-0.844;2022-11-10T09:25:42;100883.59;;;14.45;78.81
62926;BME280;55732;52.248;-0.844;2022-11-10T09:28:14;100889.19;;;14.51;78.61
62926;BME280;55732;52.248;-0.844;2022-11-10T09:30:40;100887.01;;;14.56;78.51
62926;BME280;55732;52.248;-0.844;2022-11-10T09:33:06;100886.27;;;14.59;78.42
62926;BME280;55732;52.248;-0.844;2022-11-10T09:35:35;100887.59;;;14.66;78.26
62926;BME280;55732;52.248;-0.844;2022-11-10T09:38:00;100887.70;;;14.71;77.92
62926;BME280;55732;52.248;-0.844;2022-11-10T09:43:14;100890.95;;;14.92;77.71
62926;BME280;55732;52.248;-0.844;2022-11-10T09:45:43;100899.92;;;15.09;77.59
62926;BME280;55732;52.248;-0.844;2022-11-10T09:48:18;100897.13;;;15.30;77.17
62926;BME280;55732;52.248;-0.844;2022-11-10T09:50:51;100906.86;;;15.55;76.34
62926;BME280;55732;52.248;-0.844;2022-11-10T09:53:34;100910.33;;;15.82;75.85
62926;BME280;55732;52.248;-0.844;2022-11-10T09:56:03;100917.73;;;16.05;75.52
62926;BME280;55732;52.248;-0.844;2022-11-10T09:58:37;100933.80;;;16.18;75.29
62926;BME280;55732;52.248;-0.844;2022-11-10T10:01:17;100932.93;;;16.36;74.56
62926;BME280;55732;52.248;-0.844;2022-11-10T10:03:59;100937.36;;;16.46;74.17
62926;BME280;55732;52.248;-0.844;2022-11-10T10:06:27;100938.66;;;16.44;73.77
62926;BME280;55732;52.248;-0.844;2022-11-10T10:20:20;100928.58;;;15.83;74.56
62926;BME280;55732;52.248;-0.844;2022-11-10T10:25:30;100940.56;;;15.56;75.21
62926;BME280;55732;52.248;-0.844;2022-11-10T10:28:03;100961.35;;;15.42;75.55
62926;BME280;55732;52.248;-0.844;2022-11-10T10:30:30;100969.23;;;15.25;75.71
62926;BME280;55732;52.248;-0.844;2022-11-10T10:33:04;100967.70;;;15.07;76.16
62926;BME280;55732;52.248;-0.844;2022-11-10T10:35:33;100965.20;;;14.94;76.40
62926;BME280;55732;52.248;-0.844;2022-11-10T10:38:00;100956.98;;;14.86;76.49
62926;BME280;55732;52.248;-0.844;2022-11-10T10:40:26;100948.55;;;14.80;76.59
62926;BME280;55732;52.248;-0.844;2022-11-10T10:42:52;100940.96;;;14.77;76.68
62926;BME280;55732;52.248;-0.844;2022-11-10T10:45:26;100949.09;;;14.79;76.76
62926;BME280;55732;52.248;-0.844;2022-11-10T10:47:54;100953.00;;;14.78;76.80
62926;BME280;55732;52.248;-0.844;2022-11-10T10:50:22;100954.67;;;14.73;76.85
62926;BME280;55732;52.248;-0.844;2022-11-10T10:53:09;100947.25;;;14.71;77.07
62926;BME280;55732;52.248;-0.844;2022-11-10T10:55:37;100944.79;;;14.70;77.18
62926;BME280;55732;52.248;-0.844;2022-11-10T10:59:08;100951.40;;;14.65;77.21
62926;BME280;55732;52.248;-0.844;2022-11-10T11:03:42;100955.31;;;14.49;77.40
62926;BME280;55732;52.248;-0.844;2022-11-10T11:08:53;100958.57;;;14.41;77.56
62926;BME280;55732;52.248;-0.844;2022-11-10T11:11:28;100958.06;;;14.38;77.67
62926;BME280;55732;52.248;-0.844;2022-11-10T11:14:12;100958.63;;;14.35;77.84
62926;BME280;55732;52.248;-0.844;2022-11-10T11:19:25;100951.26;;;14.27;78.02
62926;BME280;55732;52.248;-0.844;2022-11-10T11:29:42;100972.61;;;14.17;78.31
62926;BME280;55732;52.248;-0.844;2022-11-10T11:34:55;100969.64;;;14.16;78.50
62926;BME280;55732;52.248;-0.844;2022-11-10T11:43:02;100957.20;;;14.17;78.13
62926;BME280;55732;52.248;-0.844;2022-11-10T11:45:58;100954.33;;;14.21;78.05
62926;BME280;55732;52.248;-0.844;2022-11-10T11:51:20;100945.80;;;14.43;77.65
62926;BME280;55732;52.248;-0.844;2022-11-10T11:56:46;100940.66;;;14.59;77.38
62926;BME280;55732;52.248;-0.844;2022-11-10T12:04:44;100936.63;;;14.71;77.00
62926;BME280;55732;52.248;-0.844;2022-11-10T12:07:51;100938.23;;;14.69;77.03
62926;BME280;55732;52.248;-0.844;2022-11-10T12:10:22;100944.80;;;14.67;76.94
62926;BME280;55732;52.248;-0.844;2022-11-10T12:13:16;100948.34;;;14.69;77.08
62926;BME280;55732;52.248;-0.844;2022-11-10T12:18:35;100952.56;;;14.86;76.88
62926;BME280;55732;52.248;-0.844;2022-11-10T12:23:55;100964.02;;;14.90;76.50
62926;BME280;55732;52.248;-0.844;2022-11-10T12:29:23;100963.92;;;14.85;76.18
62926;BME280;55732;52.248;-0.844;2022-11-10T12:31:46;100956.56;;;14.77;76.22
62926;BME280;55732;52.248;-0.844;2022-11-10T12:34:25;100967.40;;;14.76;76.09
62926;BME280;55732;52.248;-0.844;2022-11-10T12:36:53;100981.45;;;14.72;76.08
62926;BME280;55732;52.248;-0.844;2022-11-10T12:42:01;100982.98;;;14.63;76.17
62926;BME280;55732;52.248;-0.844;2022-11-10T12:47:00;100982.70;;;14.56;76.48
62926;BME280;55732;52.248;-0.844;2022-11-10T12:49:39;100981.13;;;14.54;76.50
62926;BME280;55732;52.248;-0.844;2022-11-10T12:54:56;100984.67;;;14.52;76.64
62926;BME280;55732;52.248;-0.844;2022-11-10T12:57:24;100987.00;;;14.51;76.84
62926;BME280;55732;52.248;-0.844;2022-11-10T12:59:58;100989.33;;;14.50;76.84
62926;BME280;55732;52.248;-0.844;2022-11-10T13:02:34;100985.97;;;14.50;76.86
62926;BME280;55732;52.248;-0.844;2022-11-10T13:07:40;100984.05;;;14.44;77.02
62926;BME280;55732;52.248;-0.844;2022-11-10T13:10:25;100988.86;;;14.43;77.20
62926;BME280;55732;52.248;-0.844;2022-11-10T13:13:10;100988.16;;;14.41;77.20
62926;BME280;55732;52.248;-0.844;2022-11-10T13:18:07;101004.44;;;14.44;77.40
62926;BME280;55732;52.248;-0.844;2022-11-10T13:20:48;101008.70;;;14.44;77.42
62926;BME280;55732;52.248;-0.844;2022-11-10T13:23:20;101017.72;;;14.44;77.62
62926;BME280;55732;52.248;-0.844;2022-11-10T13:25:58;101030.13;;;14.44;77.56
62926;BME280;55732;52.248;-0.844;2022-11-10T13:34:30;101030.18;;;14.36;77.78
62926;BME280;55732;52.248;-0.844;2022-11-10T13:36:56;101024.52;;;14.34;77.79
62926;BME280;55732;52.248;-0.844;2022-11-10T13:39:24;101024.71;;;14.32;77.77
62926;BME280;55732;52.248;-0.844;2022-11-10T13:44:25;101010.55;;;14.31;77.90
62926;BME280;55732;52.248;-0.844;2022-11-10T13:52:55;101006.48;;;14.31;78.18
62926;BME280;55732;52.248;-0.844;2022-11-10T13:55:38;101001.17;;;14.29;78.29
62926;BME280;55732;52.248;-0.844;2022-11-10T13:58:17;100995.02;;;14.27;78.40
62926;BME280;55732;52.248;-0.844;2022-11-10T14:00:49;100993.29;;;14.23;78.52
62926;BME280;55732;52.248;-0.844;2022-11-10T14:03:52;100995.42;;;14.21;78.69
62926;BME280;55732;52.248;-0.844;2022-11-10T14:06:26;101000.40;;;14.19;78.85
62926;BME280;55732;52.248;-0.844;2022-11-10T14:09:04;101002.86;;;14.20;78.98
62926;BME280;55732;52.248;-0.844;2022-11-10T14:11:37;100999.50;;;14.20;79.15
62926;BME280;55732;52.248;-0.844;2022-11-10T14:14:24;100993.48;;;14.22;79.20
62926;BME280;55732;52.248;-0.844;2022-11-10T14:16:52;100999.31;;;14.23;79.17
62926;BME280;55732;52.248;-0.844;2022-11-10T14:19:40;101000.90;;;14.24;79.24